Time;durP1;ratioP1;P1;durP2;ratioP2;P2;SDS_P1;SDS_P2;PMS_P1;PMS_P2;Temp;Humidity;BMP_temperature;BMP_pressure;BME280_temperature;BME280_humidity;BME280_pressure;Samples;Min_cycle;Max_cycle;Signal;HPM_P1;HPM_P2
2023/09/20 00:00:36;;;;;;;4.00;1.30;;;;;;;;;;5030275;28;20474;-53
2023/09/20 00:03:04;;;;;;;2.77;1.37;;;;;;;;;;5030457;28;20455;-54
2023/09/20 00:05:33;;;;;;;2.33;1.30;;;;;;;;;;5027424;28;20450;-53
2023/09/20 00:08:03;;;;;;;2.63;1.20;;;;;;;;;;5029448;28;20450;-54
2023/09/20 00:10:31;;;;;;;2.43;1.73;;;;;;;;;;5030089;28;20841;-53
2023/09/20 00:12:58;;;;;;;3.70;1.57;;;;;;;;;;5029803;28;20492;-56
2023/09/20 00:15:25;;;;;;;3.03;1.37;;;;;;;;;;5030521;28;20450;-53
2023/09/20 00:17:54;;;;;;;2.27;1.40;;;;;;;;;;5030237;28;20496;-54
2023/09/20 00:20:21;;;;;;;2.33;1.07;;;;;;;;;;5029909;28;20477;-54
2023/09/20 00:22:50;;;;;;;2.30;1.43;;;;;;;;;;5029668;28;20509;-54
2023/09/20 00:25:20;;;;;;;2.57;1.30;;;;;;;;;;5029826;28;20452;-54
2023/09/20 00:27:47;;;;;;;2.00;1.10;;;;;;;;;;5029847;28;20536;-53
2023/09/20 00:30:17;;;;;;;3.47;1.17;;;;;;;;;;5030100;28;20462;-54
2023/09/20 00:32:45;;;;;;;2.40;1.13;;;;;;;;;;5029650;28;20506;-55
2023/09/20 00:35:14;;;;;;;2.67;1.10;;;;;;;;;;5029835;28;20447;-55
2023/09/20 00:37:41;;;;;;;3.07;1.30;;;;;;;;;;5029469;28;20534;-54
2023/09/20 00:40:15;;;;;;;2.00;1.17;;;;;;;;;;5029743;28;20470;-54
2023/09/20 00:42:45;;;;;;;2.57;1.37;;;;;;;;;;5030124;28;20457;-53
2023/09/20 00:45:14;;;;;;;2.57;1.30;;;;;;;;;;5029305;28;20453;-53
2023/09/20 00:47:42;;;;;;;2.30;0.93;;;;;;;;;;5029411;28;20883;-53
2023/09/20 00:50:12;;;;;;;2.30;1.20;;;;;;;;;;5026842;28;20466;-53
2023/09/20 00:52:40;;;;;;;1.70;1.20;;;;;;;;;;5029684;28;20992;-54
2023/09/20 00:55:08;;;;;;;4.23;1.10;;;;;;;;;;5031459;28;20474;-54
2023/09/20 00:57:35;;;;;;;2.40;1.33;;;;;;;;;;5033237;28;20483;-53
2023/09/20 01:00:13;;;;;;;2.87;1.30;;;;;;;;;;5033799;28;20462;-54
2023/09/20 01:02:40;;;;;;;1.57;0.80;;;;;;;;;;5033588;28;20488;-53
2023/09/20 01:05:09;;;;;;;2.10;1.30;;;;;;;;;;5033603;28;21019;-54
2023/09/20 01:07:36;;;;;;;2.90;1.23;;;;;;;;;;5032051;28;20446;-55
2023/09/20 01:10:05;;;;;;;2.10;1.20;;;;;;;;;;5031667;28;20502;-54
2023/09/20 01:12:34;;;;;;;2.70;0.93;;;;;;;;;;5032122;28;20488;-54
2023/09/20 01:15:01;;;;;;;2.43;1.07;;;;;;;;;;5031764;28;20450;-54
2023/09/20 01:17:30;;;;;;;1.87;1.10;;;;;;;;;;5031794;28;20998;-55
2023/09/20 01:19:57;;;;;;;3.60;1.20;;;;;;;;;;5031876;28;20462;-53
2023/09/20 01:22:26;;;;;;;2.13;1.33;;;;;;;;;;5033006;28;20450;-53
2023/09/20 01:24:55;;;;;;;2.47;1.00;;;;;;;;;;5032663;28;20465;-54
2023/09/20 01:27:24;;;;;;;3.40;1.53;;;;;;;;;;5032631;28;20450;-54
2023/09/20 01:29:52;;;;;;;2.73;1.20;;;;;;;;;;5032921;28;20466;-54
2023/09/20 01:32:20;;;;;;;2.13;1.13;;;;;;;;;;5032682;28;20482;-53
2023/09/20 01:34:47;;;;;;;2.10;0.93;;;;;;;;;;5033186;28;20454;-54
2023/09/20 01:37:14;;;;;;;2.23;1.33;;;;;;;;;;5032697;28;20882;-54
2023/09/20 01:39:43;;;;;;;5.27;1.10;;;;;;;;;;5032440;28;20837;-53
2023/09/20 01:42:11;;;;;;;2.00;1.20;;;;;;;;;;5032025;28;20450;-53
2023/09/20 01:44:38;;;;;;;4.57;1.53;;;;;;;;;;5032562;28;20511;-55
2023/09/20 01:47:06;;;;;;;4.37;1.57;;;;;;;;;;5032879;28;20500;-54
2023/09/20 01:49:34;;;;;;;6.67;1.30;;;;;;;;;;5032716;28;20478;-53
2023/09/20 01:52:05;;;;;;;2.13;1.10;;;;;;;;;;5031535;28;21005;-54
2023/09/20 01:54:32;;;;;;;2.40;1.27;;;;;;;;;;5032699;28;20458;-55
2023/09/20 01:57:01;;;;;;;2.83;1.10;;;;;;;;;;5031970;28;21133;-54
2023/09/20 01:59:28;;;;;;;3.07;1.30;;;;;;;;;;5032406;28;20998;-54
2023/09/20 02:01:55;;;;;;;2.17;0.97;;;;;;;;;;5032390;28;20482;-53
2023/09/20 02:04:23;;;;;;;2.10;1.13;;;;;;;;;;5032295;28;20461;-55
2023/09/20 02:06:50;;;;;;;3.80;1.40;;;;;;;;;;5030852;28;20542;-55
2023/09/20 02:09:18;;;;;;;2.60;1.33;;;;;;;;;;5031935;28;20479;-54
2023/09/20 02:11:45;;;;;;;1.87;0.90;;;;;;;;;;5031768;28;20453;-54
2023/09/20 02:14:14;;;;;;;2.63;1.20;;;;;;;;;;5032158;28;20477;-53
2023/09/20 02:16:41;;;;;;;2.60;1.27;;;;;;;;;;5032133;28;20482;-54
2023/09/20 02:19:08;;;;;;;2.03;0.97;;;;;;;;;;5032315;28;20458;-53
2023/09/20 02:21:36;;;;;;;2.30;1.30;;;;;;;;;;5032050;28;20536;-54
2023/09/20 02:24:03;;;;;;;3.70;1.37;;;;;;;;;;5031847;28;20521;-53
2023/09/20 02:26:30;;;;;;;1.90;1.20;;;;;;;;;;5032097;28;20525;-54
2023/09/20 02:28:59;;;;;;;2.10;1.10;;;;;;;;;;5031433;28;20496;-54
2023/09/20 02:31:28;;;;;;;2.37;1.23;;;;;;;;;;5032027;28;21022;-54
2023/09/20 02:33:55;;;;;;;2.50;1.33;;;;;;;;;;5031855;28;20486;-54
2023/09/20 02:36:22;;;;;;;2.60;1.40;;;;;;;;;;5032122;28;20525;-54
2023/09/20 02:38:50;;;;;;;2.40;1.43;;;;;;;;;;5031649;28;20442;-53
2023/09/20 02:41:17;;;;;;;3.10;1.43;;;;;;;;;;5031802;28;20520;-53
2023/09/20 02:43:45;;;;;;;2.60;1.30;;;;;;;;;;5031801;28;21022;-53
2023/09/20 02:46:13;;;;;;;2.10;1.30;;;;;;;;;;5031804;28;20788;-53
2023/09/20 02:48:41;;;;;;;2.63;1.40;;;;;;;;;;5031644;28;20454;-53
2023/09/20 02:51:09;;;;;;;3.60;1.40;;;;;;;;;;5031141;28;20524;-54
2023/09/20 02:53:36;;;;;;;2.73;1.40;;;;;;;;;;5031201;28;20892;-54
2023/09/20 02:56:05;;;;;;;1.70;1.00;;;;;;;;;;5031716;28;20465;-53
2023/09/20 02:58:32;;;;;;;4.53;1.50;;;;;;;;;;5031177;28;20454;-53
2023/09/20 03:00:59;;;;;;;2.53;1.27;;;;;;;;;;5031366;28;20466;-55
2023/09/20 03:03:28;;;;;;;2.40;1.10;;;;;;;;;;5031568;28;20530;-53
2023/09/20 03:05:57;;;;;;;6.00;1.40;;;;;;;;;;5031252;28;20450;-53
2023/09/20 03:08:24;;;;;;;3.13;1.40;;;;;;;;;;5031532;28;20549;-54
2023/09/20 03:10:53;;;;;;;2.10;1.20;;;;;;;;;;5031227;28;20791;-53
2023/09/20 03:13:20;;;;;;;2.60;1.03;;;;;;;;;;5030893;28;20474;-53
2023/09/20 03:15:51;;;;;;;2.37;1.10;;;;;;;;;;5031099;28;20825;-53
2023/09/20 03:18:18;;;;;;;2.40;1.33;;;;;;;;;;5030711;28;20450;-54
2023/09/20 03:20:48;;;;;;;2.93;1.27;;;;;;;;;;5031035;28;20466;-53
2023/09/20 03:23:17;;;;;;;10.93;1.57;;;;;;;;;;5030817;28;20522;-54
2023/09/20 03:25:44;;;;;;;2.60;1.23;;;;;;;;;;5031051;28;20446;-53
2023/09/20 03:28:11;;;;;;;4.47;1.10;;;;;;;;;;5030641;28;20470;-53
2023/09/20 03:30:39;;;;;;;1.80;0.90;;;;;;;;;;5031024;28;20520;-53
2023/09/20 03:33:07;;;;;;;3.27;1.47;;;;;;;;;;5030611;28;20490;-54
2023/09/20 03:35:34;;;;;;;3.03;1.50;;;;;;;;;;5030903;28;20520;-53
2023/09/20 03:38:03;;;;;;;2.10;1.07;;;;;;;;;;5030583;28;20450;-53
2023/09/20 03:40:32;;;;;;;5.70;1.53;;;;;;;;;;5030563;28;20470;-53
2023/09/20 03:43:02;;;;;;;1.80;1.13;;;;;;;;;;5028925;28;20467;-53
2023/09/20 03:45:29;;;;;;;3.40;1.50;;;;;;;;;;5030605;28;20462;-54
2023/09/20 03:47:57;;;;;;;2.27;1.30;;;;;;;;;;5030435;28;20528;-53
2023/09/20 03:50:25;;;;;;;2.37;1.33;;;;;;;;;;5070723;22;20489;-87
2023/09/20 03:52:53;;;;;;;2.47;1.23;;;;;;;;;;5031781;28;20482;-87
2023/09/20 03:55:20;;;;;;;1.70;1.10;;;;;;;;;;5031533;28;20498;-87
2023/09/20 04:00:28;;;;;;;3.47;1.47;;;;;;;;;;5036169;28;20844;-58
2023/09/20 04:02:55;;;;;;;2.60;1.20;;;;;;;;;;5030188;28;20506;-57
2023/09/20 04:05:24;;;;;;;3.53;1.30;;;;;;;;;;5031307;28;20530;-57
2023/09/20 04:07:51;;;;;;;3.00;1.33;;;;;;;;;;5029542;28;20479;-57
2023/09/20 04:10:19;;;;;;;2.30;1.40;;;;;;;;;;5030612;28;20528;-58
2023/09/20 04:12:47;;;;;;;4.47;1.10;;;;;;;;;;5031470;28;20458;-58
2023/09/20 04:15:15;;;;;;;8.60;1.40;;;;;;;;;;5031349;28;20883;-58
2023/09/20 04:17:43;;;;;;;2.13;1.17;;;;;;;;;;5031421;28;20445;-58
2023/09/20 04:20:12;;;;;;;3.23;1.40;;;;;;;;;;5030389;28;20499;-57
2023/09/20 04:22:41;;;;;;;2.57;1.50;;;;;;;;;;5036309;28;20450;-58
2023/09/20 04:25:10;;;;;;;2.30;1.57;;;;;;;;;;5030217;28;20541;-57
2023/09/20 04:27:37;;;;;;;3.57;1.60;;;;;;;;;;5029224;28;20450;-57
2023/09/20 04:30:07;;;;;;;3.20;1.33;;;;;;;;;;5030622;28;20466;-57
2023/09/20 04:32:35;;;;;;;2.20;1.20;;;;;;;;;;5034191;28;20945;-57
2023/09/20 04:35:04;;;;;;;3.30;2.00;;;;;;;;;;5030816;28;20450;-57
2023/09/20 04:37:31;;;;;;;4.90;1.50;;;;;;;;;;5032024;28;20446;-57
2023/09/20 04:39:58;;;;;;;3.13;1.40;;;;;;;;;;5030041;28;20527;-58
2023/09/20 04:42:26;;;;;;;1.70;1.20;;;;;;;;;;5031260;28;20447;-57
2023/09/20 04:44:53;;;;;;;2.80;1.57;;;;;;;;;;5031744;28;20673;-58
2023/09/20 04:47:20;;;;;;;3.23;1.40;;;;;;;;;;5030541;28;20450;-57
2023/09/20 04:49:48;;;;;;;2.33;1.40;;;;;;;;;;5034734;28;20470;-58
2023/09/20 04:52:17;;;;;;;3.53;1.53;;;;;;;;;;5030775;28;20544;-58
2023/09/20 04:54:45;;;;;;;3.97;1.40;;;;;;;;;;5029636;28;20536;-57
2023/09/20 04:57:13;;;;;;;5.93;1.87;;;;;;;;;;5029489;28;20500;-58
2023/09/20 04:59:41;;;;;;;2.40;1.57;;;;;;;;;;5029902;28;20557;-58
2023/09/20 05:02:09;;;;;;;2.53;1.40;;;;;;;;;;5032798;28;20850;-58
2023/09/20 05:04:36;;;;;;;3.83;1.50;;;;;;;;;;5030125;28;20434;-57
2023/09/20 05:07:05;;;;;;;2.50;1.20;;;;;;;;;;5029649;28;20512;-57
2023/09/20 05:09:34;;;;;;;2.93;1.40;;;;;;;;;;5036064;28;20473;-57
2023/09/20 05:12:02;;;;;;;2.57;1.10;;;;;;;;;;5030735;28;20449;-58
2023/09/20 05:14:29;;;;;;;3.07;1.20;;;;;;;;;;5038185;28;20473;-59
2023/09/20 05:16:56;;;;;;;3.13;1.37;;;;;;;;;;5036401;28;20550;-58
2023/09/20 05:19:24;;;;;;;1.90;1.43;;;;;;;;;;5035352;28;20988;-58
2023/09/20 05:21:51;;;;;;;2.70;1.20;;;;;;;;;;5032549;28;20896;-58
2023/09/20 05:24:18;;;;;;;2.43;1.30;;;;;;;;;;5033158;28;20869;-58
2023/09/20 05:26:47;;;;;;;2.63;1.50;;;;;;;;;;5036775;28;20515;-58
2023/09/20 05:29:14;;;;;;;3.47;1.50;;;;;;;;;;5035947;28;20535;-58
2023/09/20 05:31:42;;;;;;;2.20;1.33;;;;;;;;;;5036870;28;20449;-57
2023/09/20 05:34:09;;;;;;;2.00;1.30;;;;;;;;;;5027810;28;20478;-58
2023/09/20 05:36:37;;;;;;;2.57;1.50;;;;;;;;;;5028358;28;20498;-58
2023/09/20 05:39:06;;;;;;;3.70;1.50;;;;;;;;;;5032122;28;20549;-58
2023/09/20 05:41:34;;;;;;;2.00;1.17;;;;;;;;;;5037640;28;20456;-58
2023/09/20 05:44:04;;;;;;;2.13;1.30;;;;;;;;;;5031445;28;20565;-57
2023/09/20 05:46:31;;;;;;;2.90;1.70;;;;;;;;;;5031551;28;20469;-59
2023/09/20 05:48:58;;;;;;;2.47;1.47;;;;;;;;;;5034970;28;20507;-58
2023/09/20 05:51:26;;;;;;;2.37;1.53;;;;;;;;;;5037435;28;20500;-57
2023/09/20 05:53:53;;;;;;;2.70;1.50;;;;;;;;;;5033075;28;20535;-58
2023/09/20 05:56:20;;;;;;;3.50;1.77;;;;;;;;;;5032533;28;20446;-58
2023/09/20 05:58:48;;;;;;;4.80;1.90;;;;;;;;;;5031577;28;20466;-57
2023/09/20 06:01:17;;;;;;;3.83;1.90;;;;;;;;;;5037629;28;20504;-58
2023/09/20 06:03:46;;;;;;;3.10;1.80;;;;;;;;;;5036836;28;20449;-58
2023/09/20 06:06:13;;;;;;;3.23;1.97;;;;;;;;;;5038906;28;20446;-57
2023/09/20 06:08:42;;;;;;;4.00;1.33;;;;;;;;;;5032093;28;20810;-58
2023/09/20 06:11:09;;;;;;;2.83;1.60;;;;;;;;;;5033432;28;21055;-58
2023/09/20 06:13:38;;;;;;;3.27;2.20;;;;;;;;;;5032208;28;21086;-57
2023/09/20 06:16:07;;;;;;;3.97;1.90;;;;;;;;;;5030219;28;20439;-57
2023/09/20 06:18:36;;;;;;;2.50;1.50;;;;;;;;;;5030911;28;20474;-57
2023/09/20 06:21:03;;;;;;;3.37;1.87;;;;;;;;;;5030542;28;20537;-58
2023/09/20 06:23:32;;;;;;;12.13;2.40;;;;;;;;;;5027975;28;20624;-58
2023/09/20 06:26:05;;;;;;;3.10;2.50;;;;;;;;;;5030802;28;20450;-58
2023/09/20 06:28:32;;;;;;;4.63;2.53;;;;;;;;;;5032465;28;20824;-57
2023/09/20 06:31:00;;;;;;;6.80;2.83;;;;;;;;;;5033279;28;20473;-57
2023/09/20 06:33:28;;;;;;;3.00;2.07;;;;;;;;;;5032698;28;20940;-59
2023/09/20 06:35:57;;;;;;;2.90;2.40;;;;;;;;;;5029703;28;20545;-58
2023/09/20 06:38:25;;;;;;;3.27;2.27;;;;;;;;;;5038863;28;20553;-57
2023/09/20 06:40:52;;;;;;;2.60;1.70;;;;;;;;;;5031719;28;20462;-57
2023/09/20 06:43:20;;;;;;;4.83;2.07;;;;;;;;;;5031385;28;20446;-58
2023/09/20 06:45:50;;;;;;;3.30;1.93;;;;;;;;;;5030242;28;20516;-57
2023/09/20 06:48:20;;;;;;;4.60;1.80;;;;;;;;;;5029943;28;20960;-57
2023/09/20 06:50:48;;;;;;;3.50;1.60;;;;;;;;;;5030763;28;20535;-58
2023/09/20 06:53:17;;;;;;;2.57;1.40;;;;;;;;;;5026037;28;20442;-58
2023/09/20 06:55:44;;;;;;;2.47;1.30;;;;;;;;;;5030277;28;20438;-57
2023/09/20 06:58:12;;;;;;;2.93;1.67;;;;;;;;;;5029661;28;20446;-58
2023/09/20 07:00:39;;;;;;;2.57;1.37;;;;;;;;;;5035024;28;20474;-57
2023/09/20 07:03:06;;;;;;;3.83;1.77;;;;;;;;;;5034734;28;20482;-58
2023/09/20 07:05:34;;;;;;;3.37;1.90;;;;;;;;;;5037648;28;20648;-58
2023/09/20 07:08:01;;;;;;;2.57;1.40;;;;;;;;;;5031676;28;20925;-58
2023/09/20 07:10:31;;;;;;;2.37;1.60;;;;;;;;;;5030962;28;20462;-58
2023/09/20 07:12:58;;;;;;;3.37;1.80;;;;;;;;;;5031006;28;20478;-56
2023/09/20 07:15:26;;;;;;;3.77;2.40;;;;;;;;;;5030905;28;20517;-56
2023/09/20 07:18:00;;;;;;;4.03;2.13;;;;;;;;;;5030706;28;20499;-56
2023/09/20 07:20:28;;;;;;;3.63;2.10;;;;;;;;;;5035829;28;20476;-56
2023/09/20 07:22:55;;;;;;;2.67;1.63;;;;;;;;;;5037533;28;20451;-57
2023/09/20 07:25:27;;;;;;;2.50;1.43;;;;;;;;;;5041643;28;20933;-56
2023/09/20 07:27:58;;;;;;;2.03;1.50;;;;;;;;;;5029948;28;20508;-56
2023/09/20 07:30:31;;;;;;;2.60;1.60;;;;;;;;;;5037729;28;21000;-56
2023/09/20 07:32:59;;;;;;;2.93;1.80;;;;;;;;;;5029499;28;20481;-56
2023/09/20 07:35:27;;;;;;;2.90;1.63;;;;;;;;;;5030353;28;20976;-57
2023/09/20 07:37:58;;;;;;;2.83;1.33;;;;;;;;;;5030276;28;20446;-56
2023/09/20 07:40:29;;;;;;;2.57;1.90;;;;;;;;;;5030572;28;21130;-56
2023/09/20 07:43:04;;;;;;;2.60;1.57;;;;;;;;;;5030703;28;20529;-56
2023/09/20 07:45:37;;;;;;;3.43;1.70;;;;;;;;;;5030503;28;20450;-56
2023/09/20 07:48:11;;;;;;;3.80;1.80;;;;;;;;;;5039534;28;20450;-57
2023/09/20 07:50:40;;;;;;;2.80;1.97;;;;;;;;;;5030170;28;20553;-56
2023/09/20 07:53:10;;;;;;;3.57;3.27;;;;;;;;;;5030091;28;20453;-56
2023/09/20 07:55:37;;;;;;;5.33;2.40;;;;;;;;;;5030114;28;20559;-58
2023/09/20 07:58:06;;;;;;;2.33;1.40;;;;;;;;;;5031797;28;20459;-58
2023/09/20 08:00:35;;;;;;;1.93;1.40;;;;;;;;;;5029303;28;20466;-57
2023/09/20 08:03:04;;;;;;;3.13;1.50;;;;;;;;;;5030062;28;20946;-56
2023/09/20 08:05:33;;;;;;;2.93;1.50;;;;;;;;;;5029061;28;20470;-56
2023/09/20 08:08:00;;;;;;;2.50;1.63;;;;;;;;;;5030064;28;20450;-57
2023/09/20 08:10:27;;;;;;;2.80;1.60;;;;;;;;;;5029933;28;20843;-56
2023/09/20 08:12:55;;;;;;;3.40;1.50;;;;;;;;;;5029988;28;20526;-56
2023/09/20 08:15:24;;;;;;;2.87;1.50;;;;;;;;;;5026934;28;20477;-56
2023/09/20 08:20:38;;;;;;;2.17;1.43;;;;;;;;;;5028400;28;20998;-56
2023/09/20 09:01:44;;;;;;;2.93;1.60;;;;;;;;;;5028507;28;20518;-57
2023/09/20 09:04:14;;;;;;;3.53;1.47;;;;;;;;;;5028495;28;20450;-56
2023/09/20 09:06:42;;;;;;;3.90;1.50;;;;;;;;;;5028400;28;20536;-57
2023/09/20 09:09:10;;;;;;;2.07;1.27;;;;;;;;;;5027872;28;20441;-56
2023/09/20 09:11:37;;;;;;;3.90;2.07;;;;;;;;;;5028926;28;20818;-56
2023/09/20 09:14:05;;;;;;;3.43;1.80;;;;;;;;;;5037793;28;20632;-56
2023/09/20 09:16:33;;;;;;;2.70;1.50;;;;;;;;;;5031836;28;20453;-57
2023/09/20 09:19:00;;;;;;;2.30;1.50;;;;;;;;;;5034119;28;20894;-57
2023/09/20 09:21:30;;;;;;;2.70;1.33;;;;;;;;;;5035578;28;20474;-56
2023/09/20 09:23:58;;;;;;;2.47;1.40;;;;;;;;;;5035085;28;20488;-57
2023/09/20 09:26:26;;;;;;;3.30;1.30;;;;;;;;;;5026358;28;20504;-57
2023/09/20 09:28:54;;;;;;;2.40;1.50;;;;;;;;;;5030367;28;20450;-57
2023/09/20 09:31:21;;;;;;;1.87;1.13;;;;;;;;;;5033110;28;20568;-56
2023/09/20 09:33:48;;;;;;;2.90;1.40;;;;;;;;;;5033006;28;20836;-56
2023/09/20 09:36:16;;;;;;;3.60;1.70;;;;;;;;;;5032861;28;21118;-57
2023/09/20 09:38:44;;;;;;;2.07;1.20;;;;;;;;;;5031666;28;20477;-57
2023/09/20 09:41:12;;;;;;;2.60;1.20;;;;;;;;;;5032650;28;20543;-56
2023/09/20 09:43:39;;;;;;;2.50;1.50;;;;;;;;;;5033100;28;20858;-56
2023/09/20 09:46:08;;;;;;;3.10;1.20;;;;;;;;;;5033078;28;20832;-57
2023/09/20 09:48:37;;;;;;;2.00;1.60;;;;;;;;;;5032708;28;20500;-56
2023/09/20 09:51:06;;;;;;;3.17;1.30;;;;;;;;;;5055154;23;20493;-55
2023/09/20 09:53:34;;;;;;;2.33;1.73;;;;;;;;;;5047061;28;20481;-58
2023/09/20 09:56:04;;;;;;;2.20;1.20;;;;;;;;;;5050574;28;20473;-58
2023/09/20 09:58:31;;;;;;;2.43;1.50;;;;;;;;;;5051329;28;20531;-57
2023/09/20 10:01:04;;;;;;;2.10;1.10;;;;;;;;;;5051767;28;20838;-58
2023/09/20 10:03:32;;;;;;;3.03;1.50;;;;;;;;;;5052528;28;20441;-57
2023/09/20 10:06:05;;;;;;;3.20;1.20;;;;;;;;;;5051537;28;20437;-54
2023/09/20 10:08:36;;;;;;;2.37;1.20;;;;;;;;;;5049863;28;20535;-58
2023/09/20 10:11:05;;;;;;;2.33;1.57;;;;;;;;;;5051510;28;20453;-58
2023/09/20 10:13:34;;;;;;;1.90;1.27;;;;;;;;;;5052018;28;20528;-58
2023/09/20 10:16:04;;;;;;;3.73;1.03;;;;;;;;;;5051837;28;20481;-58
2023/09/20 10:18:33;;;;;;;3.33;1.50;;;;;;;;;;5051130;28;20441;-58
2023/09/20 10:21:05;;;;;;;2.70;1.57;;;;;;;;;;5050019;28;21027;-57
2023/09/20 10:23:35;;;;;;;2.37;1.80;;;;;;;;;;5048867;28;20844;-57
2023/09/20 10:26:02;;;;;;;2.20;1.33;;;;;;;;;;5051063;28;20477;-57
2023/09/20 10:28:37;;;;;;;2.43;1.40;;;;;;;;;;5050778;28;20449;-56
2023/09/20 10:31:06;;;;;;;2.27;1.53;;;;;;;;;;5048310;28;20472;-57
2023/09/20 10:33:46;;;;;;;2.30;1.33;;;;;;;;;;5047053;28;20503;-56
2023/09/20 10:36:14;;;;;;;1.83;1.43;;;;;;;;;;5049806;28;20505;-56
2023/09/20 10:38:44;;;;;;;2.57;1.50;;;;;;;;;;5045433;28;20449;-57
2023/09/20 10:41:12;;;;;;;3.40;1.50;;;;;;;;;;5049521;28;20461;-58
2023/09/20 10:43:47;;;;;;;2.17;1.50;;;;;;;;;;5048609;28;20935;-57
2023/09/20 10:46:15;;;;;;;4.43;1.50;;;;;;;;;;5049805;28;20840;-57
2023/09/20 10:48:44;;;;;;;2.40;1.30;;;;;;;;;;5048248;28;20539;-57
2023/09/20 10:51:11;;;;;;;2.20;1.23;;;;;;;;;;5050114;28;21029;-57
2023/09/20 10:54:02;;;;;;;2.40;1.30;;;;;;;;;;5049335;28;20495;-58
2023/09/20 10:56:45;;;;;;;2.70;1.70;;;;;;;;;;5051062;28;20479;-58
2023/09/20 10:59:17;;;;;;;3.50;2.00;;;;;;;;;;5051507;28;20516;-57
2023/09/20 11:01:50;;;;;;;2.40;1.53;;;;;;;;;;5051343;28;20445;-56
2023/09/20 11:04:17;;;;;;;4.07;1.40;;;;;;;;;;5048340;28;20449;-57
2023/09/20 11:06:46;;;;;;;2.30;1.40;;;;;;;;;;5050749;28;20441;-55
2023/09/20 11:09:13;;;;;;;2.10;1.40;;;;;;;;;;5039892;28;20537;-58
2023/09/20 11:11:41;;;;;;;3.27;1.40;;;;;;;;;;5047695;28;20469;-57
2023/09/20 11:14:09;;;;;;;1.80;1.40;;;;;;;;;;5051217;28;20449;-57
2023/09/20 11:16:41;;;;;;;2.73;1.70;;;;;;;;;;5049168;28;20907;-56
2023/09/20 11:19:10;;;;;;;3.50;1.50;;;;;;;;;;5050601;28;20511;-57
2023/09/20 11:21:38;;;;;;;3.30;1.70;;;;;;;;;;5046753;28;20836;-57
2023/09/20 11:24:06;;;;;;;3.00;1.60;;;;;;;;;;5048268;28;20524;-57
2023/09/20 11:26:33;;;;;;;2.63;1.43;;;;;;;;;;5049050;28;20464;-56
2023/09/20 11:29:01;;;;;;;3.20;1.77;;;;;;;;;;5050368;28;20522;-56
2023/09/20 11:31:28;;;;;;;3.97;1.47;;;;;;;;;;5045900;28;20474;-57
2023/09/20 11:34:00;;;;;;;3.70;1.73;;;;;;;;;;5048421;28;20433;-58
2023/09/20 11:36:27;;;;;;;2.73;1.30;;;;;;;;;;5050391;28;20759;-58
2023/09/20 11:38:55;;;;;;;2.47;1.30;;;;;;;;;;5049440;28;20936;-56
2023/09/20 11:41:23;;;;;;;2.77;1.43;;;;;;;;;;5049970;28;20457;-57
2023/09/20 11:43:54;;;;;;;3.03;1.53;;;;;;;;;;5046945;28;21086;-57
2023/09/20 11:46:22;;;;;;;3.80;1.43;;;;;;;;;;5051072;28;20433;-56
2023/09/20 11:48:50;;;;;;;2.57;1.40;;;;;;;;;;5047698;28;20491;-56
2023/09/20 11:51:19;;;;;;;2.73;1.57;;;;;;;;;;5043737;28;20542;-56
2023/09/20 11:53:46;;;;;;;2.30;1.30;;;;;;;;;;5050481;28;20928;-56
2023/09/20 11:56:13;;;;;;;2.17;1.40;;;;;;;;;;5050548;28;20530;-57
2023/09/20 11:58:43;;;;;;;1.93;1.00;;;;;;;;;;5050365;28;20441;-56
2023/09/20 12:01:10;;;;;;;2.60;1.47;;;;;;;;;;5049193;28;20543;-56
2023/09/20 12:03:37;;;;;;;2.47;1.50;;;;;;;;;;5050578;28;20650;-57
2023/09/20 12:06:04;;;;;;;2.00;1.40;;;;;;;;;;5050151;28;20503;-57
2023/09/20 12:08:33;;;;;;;4.20;1.50;;;;;;;;;;5049760;28;20437;-59
2023/09/20 12:11:01;;;;;;;2.90;1.23;;;;;;;;;;5050118;28;20473;-56
2023/09/20 12:13:28;;;;;;;2.50;1.53;;;;;;;;;;5050529;28;20787;-57
2023/09/20 12:15:55;;;;;;;2.60;1.73;;;;;;;;;;5049841;28;20476;-56
2023/09/20 12:18:25;;;;;;;3.13;1.67;;;;;;;;;;5050003;28;20441;-57
2023/09/20 12:20:52;;;;;;;2.73;1.30;;;;;;;;;;5050201;28;20903;-57
2023/09/20 12:23:19;;;;;;;2.40;1.70;;;;;;;;;;5050128;28;20473;-56
2023/09/20 12:25:48;;;;;;;3.33;1.80;;;;;;;;;;5049869;28;20444;-57
2023/09/20 12:28:16;;;;;;;2.10;1.30;;;;;;;;;;5045186;28;20930;-55
2023/09/20 12:30:43;;;;;;;3.43;1.77;;;;;;;;;;5048145;28;21029;-57
2023/09/20 12:33:11;;;;;;;3.77;1.50;;;;;;;;;;5048185;28;20821;-57
2023/09/20 12:35:40;;;;;;;4.23;1.30;;;;;;;;;;5049411;28;20534;-56
2023/09/20 12:38:07;;;;;;;2.30;1.60;;;;;;;;;;5047976;28;20464;-56
2023/09/20 12:40:35;;;;;;;2.70;1.40;;;;;;;;;;5049726;28;20457;-56
2023/09/20 12:43:05;;;;;;;3.07;1.80;;;;;;;;;;5049974;28;20538;-57
2023/09/20 12:45:33;;;;;;;2.20;1.70;;;;;;;;;;5050515;28;20442;-57
2023/09/20 12:48:00;;;;;;;4.47;1.40;;;;;;;;;;5049646;28;20532;-56
2023/09/20 12:50:32;;;;;;;3.37;2.10;;;;;;;;;;5047432;28;20551;-56
2023/09/20 12:52:59;;;;;;;5.90;1.77;;;;;;;;;;5053064;28;20587;-57
2023/09/20 12:55:27;;;;;;;2.43;1.40;;;;;;;;;;5052016;28;20484;-56
2023/09/20 12:57:54;;;;;;;3.90;1.50;;;;;;;;;;5051952;28;20445;-57
2023/09/20 13:00:23;;;;;;;4.00;1.50;;;;;;;;;;5050426;28;20579;-56
2023/09/20 13:02:51;;;;;;;2.60;1.53;;;;;;;;;;5053287;28;20437;-58
2023/09/20 13:05:21;;;;;;;2.83;1.53;;;;;;;;;;5051168;28;20452;-56
2023/09/20 13:07:49;;;;;;;2.67;1.77;;;;;;;;;;5051318;28;20433;-57
2023/09/20 13:10:17;;;;;;;2.57;1.30;;;;;;;;;;5053209;28;20526;-57
2023/09/20 13:12:44;;;;;;;3.33;1.70;;;;;;;;;;5053723;28;20487;-56
2023/09/20 13:15:14;;;;;;;2.23;1.43;;;;;;;;;;5052223;28;20441;-56
2023/09/20 13:17:44;;;;;;;2.10;1.30;;;;;;;;;;5050243;28;20822;-56
2023/09/20 13:20:13;;;;;;;2.50;1.50;;;;;;;;;;5052069;28;20547;-56
2023/09/20 13:22:41;;;;;;;2.77;1.73;;;;;;;;;;5048287;28;20489;-56
2023/09/20 13:25:09;;;;;;;2.60;1.87;;;;;;;;;;5050045;28;20467;-55
2023/09/20 13:27:36;;;;;;;2.50;1.60;;;;;;;;;;5052489;28;20532;-55
2023/09/20 13:30:07;;;;;;;3.40;1.80;;;;;;;;;;5052898;28;20473;-56
2023/09/20 13:32:35;;;;;;;3.57;1.60;;;;;;;;;;5052755;28;20481;-58
2023/09/20 13:35:07;;;;;;;3.07;1.60;;;;;;;;;;5051706;28;20477;-55
2023/09/20 13:37:34;;;;;;;3.63;1.70;;;;;;;;;;5051660;28;20554;-56
2023/09/20 13:40:02;;;;;;;2.97;1.80;;;;;;;;;;5052305;28;20563;-56
2023/09/20 13:42:30;;;;;;;2.47;1.60;;;;;;;;;;5053212;28;20445;-56
2023/09/20 13:45:03;;;;;;;3.67;2.00;;;;;;;;;;5053232;28;20461;-56
2023/09/20 13:47:31;;;;;;;2.23;1.50;;;;;;;;;;5053017;28;20469;-56
2023/09/20 13:49:58;;;;;;;6.57;2.80;;;;;;;;;;5053051;28;20484;-56
2023/09/20 13:52:29;;;;;;;3.27;1.63;;;;;;;;;;5053005;28;20931;-56
2023/09/20 13:54:57;;;;;;;3.83;2.00;;;;;;;;;;5053155;28;20441;-56
2023/09/20 13:57:24;;;;;;;3.73;1.40;;;;;;;;;;5052674;28;20591;-55
2023/09/20 13:59:54;;;;;;;3.07;1.87;;;;;;;;;;5052601;28;20519;-58
2023/09/20 14:02:22;;;;;;;2.53;1.70;;;;;;;;;;5052938;28;20450;-57
2023/09/20 14:04:50;;;;;;;2.97;1.90;;;;;;;;;;5052698;28;20495;-57
2023/09/20 14:07:17;;;;;;;7.10;2.60;;;;;;;;;;5045765;28;20437;-56
2023/09/20 14:09:45;;;;;;;3.90;2.00;;;;;;;;;;5052658;28;20466;-56
2023/09/20 14:12:15;;;;;;;2.93;2.00;;;;;;;;;;5052137;28;20838;-57
2023/09/20 14:14:42;;;;;;;5.10;2.47;;;;;;;;;;5052687;28;20445;-57
2023/09/20 14:17:10;;;;;;;2.80;1.83;;;;;;;;;;5052306;28;20485;-56
2023/09/20 14:19:38;;;;;;;3.43;1.90;;;;;;;;;;5052265;28;20487;-56
2023/09/20 14:22:06;;;;;;;3.63;2.00;;;;;;;;;;5052431;28;20534;-55
2023/09/20 14:24:34;;;;;;;4.40;1.53;;;;;;;;;;5052495;28;21004;-55
2023/09/20 14:27:03;;;;;;;3.13;1.70;;;;;;;;;;5051688;28;20932;-56
2023/09/20 14:29:32;;;;;;;2.77;1.97;;;;;;;;;;5052116;28;20454;-55
2023/09/20 14:31:59;;;;;;;3.60;1.60;;;;;;;;;;5051706;28;20868;-57
2023/09/20 14:34:26;;;;;;;3.40;2.20;;;;;;;;;;5051998;28;20445;-58
2023/09/20 14:36:55;;;;;;;5.00;2.73;;;;;;;;;;5047495;28;20481;-56
2023/09/20 14:39:22;;;;;;;4.10;2.20;;;;;;;;;;5051291;28;20488;-56
2023/09/20 14:41:49;;;;;;;4.37;2.13;;;;;;;;;;5051919;28;20465;-56
2023/09/20 14:44:18;;;;;;;4.23;2.10;;;;;;;;;;5051782;28;20442;-56
2023/09/20 14:46:45;;;;;;;2.50;1.90;;;;;;;;;;5051725;28;20507;-56
2023/09/20 14:49:13;;;;;;;3.50;2.10;;;;;;;;;;5048433;28;20530;-57
2023/09/20 14:51:40;;;;;;;2.97;1.97;;;;;;;;;;5051934;28;20469;-56
2023/09/20 14:54:08;;;;;;;3.50;2.47;;;;;;;;;;5050758;28;20838;-55
2023/09/20 14:56:35;;;;;;;4.47;2.20;;;;;;;;;;5051658;28;20480;-57
2023/09/20 14:59:03;;;;;;;3.43;2.20;;;;;;;;;;5050581;28;20932;-56
2023/09/20 15:01:32;;;;;;;3.00;2.27;;;;;;;;;;5051526;28;20493;-56
2023/09/20 15:03:59;;;;;;;4.90;2.73;;;;;;;;;;5051261;28;20792;-55
2023/09/20 15:06:28;;;;;;;3.33;2.53;;;;;;;;;;5051583;28;20503;-55
2023/09/20 15:08:55;;;;;;;3.33;2.27;;;;;;;;;;5051365;28;20445;-56
2023/09/20 15:11:23;;;;;;;6.73;2.40;;;;;;;;;;5051868;28;20461;-57
2023/09/20 15:13:53;;;;;;;3.77;2.63;;;;;;;;;;5051011;28;20449;-56
2023/09/20 15:16:20;;;;;;;4.67;2.90;;;;;;;;;;5051465;28;20507;-56
2023/09/20 15:18:49;;;;;;;4.40;2.50;;;;;;;;;;5050774;28;20530;-56
2023/09/20 15:21:16;;;;;;;5.00;2.67;;;;;;;;;;5050966;28;20544;-56
2023/09/20 15:23:47;;;;;;;3.70;2.20;;;;;;;;;;5051411;28;20521;-56
2023/09/20 15:26:16;;;;;;;4.07;2.63;;;;;;;;;;5051354;28;20449;-56
2023/09/20 15:28:43;;;;;;;3.57;1.90;;;;;;;;;;5051117;28;20815;-58
2023/09/20 15:31:11;;;;;;;2.77;1.90;;;;;;;;;;5050371;28;20466;-56
2023/09/20 15:33:38;;;;;;;3.63;2.30;;;;;;;;;;5042345;28;20446;-56